Time;durP1;ratioP1;P1;durP2;ratioP2;P2;SDS_P1;SDS_P2;PMS_P1;PMS_P2;Temp;Humidity;BMP_temperature;BMP_pressure;BME280_temperature;BME280_humidity;BME280_pressure;Samples;Min_cycle;Max_cycle;Signal;HPM_P1;HPM_P2
2022/12/21 00:00:19;;;;;;;;;;;;;;;15.59;56.02;101091.31;2075120;28;20044;-56
2022/12/21 00:01:23;;;;;;;;;;;;;;;15.59;56.13;101085.88;2075150;28;19928;-57
2022/12/21 00:02:24;;;;;;;;;;;;;;;15.59;56.04;101088.59;2076393;28;19929;-56
2022/12/21 00:03:27;;;;;;;;;;;;;;;15.60;55.95;101086.66;2073589;28;19995;-55
2022/12/21 00:04:30;;;;;;;;;;;;;;;15.59;56.05;101077.69;2076449;28;19929;-57
2022/12/21 00:05:32;;;;;;;;;;;;;;;15.59;56.04;101080.41;2075566;28;20413;-54
2022/12/21 00:06:35;;;;;;;;;;;;;;;15.59;55.94;101082.34;2076158;28;19929;-55
2022/12/21 00:07:38;;;;;;;;;;;;;;;15.59;56.05;101076.91;2077192;28;19948;-56
2022/12/21 00:08:42;;;;;;;;;;;;;;;15.59;56.07;101087.78;2076787;28;19929;-57
2022/12/21 00:09:43;;;;;;;;;;;;;;;15.59;56.00;101085.88;2076444;28;19929;-54
2022/12/21 00:10:47;;;;;;;;;;;;;;;15.59;56.03;101083.16;2076603;28;20415;-54
2022/12/21 00:11:48;;;;;;;;;;;;;;;15.59;56.22;101085.06;2075312;28;19929;-56
2022/12/21 00:12:51;;;;;;;;;;;;;;;15.59;56.13;101093.22;2075468;28;19929;-55
2022/12/21 00:13:54;;;;;;;;;;;;;;;15.58;56.08;101087.03;2075328;28;19948;-56
2022/12/21 00:14:57;;;;;;;;;;;;;;;15.58;55.94;101083.50;2075217;28;19929;-57
2022/12/21 00:15:59;;;;;;;;;;;;;;;15.58;56.07;101078.88;2076996;28;19952;-55
2022/12/21 00:17:02;;;;;;;;;;;;;;;15.58;55.94;101078.88;2075652;28;19971;-55
2022/12/21 00:18:03;;;;;;;;;;;;;;;15.58;56.00;101076.13;2076936;28;20301;-56
2022/12/21 00:19:06;;;;;;;;;;;;;;;15.58;56.28;101073.41;2075594;28;19937;-57
2022/12/21 00:20:08;;;;;;;;;;;;;;;15.57;55.74;101080.00;2074406;28;19940;-55
2022/12/21 00:21:13;;;;;;;;;;;;;;;15.58;55.72;101075.34;2076725;28;19936;-56
2022/12/21 00:22:15;;;;;;;;;;;;;;;15.59;56.15;101085.88;2076449;28;19929;-57
2022/12/21 00:23:19;;;;;;;;;;;;;;;15.59;56.03;101085.88;2074530;28;19944;-55
2022/12/21 00:24:21;;;;;;;;;;;;;;;15.58;56.12;101086.22;2075671;28;19936;-56
2022/12/21 00:25:23;;;;;;;;;;;;;;;15.58;56.02;101081.59;2075694;28;19929;-56
2022/12/21 00:26:26;;;;;;;;;;;;;;;15.57;56.27;101093.59;2076442;28;19929;-58
2022/12/21 00:27:29;;;;;;;;;;;;;;;15.58;55.96;101083.50;2076606;28;19963;-57
2022/12/21 00:28:31;;;;;;;;;;;;;;;15.58;55.95;101094.41;2076750;28;19929;-55
2022/12/21 00:29:34;;;;;;;;;;;;;;;15.58;55.94;101089.75;2076503;28;19932;-56
2022/12/21 00:30:35;;;;;;;;;;;;;;;15.58;56.02;101097.91;2074721;28;19933;-56
2022/12/21 00:31:39;;;;;;;;;;;;;;;15.58;56.07;101088.94;2074994;28;20281;-56
2022/12/21 00:32:40;;;;;;;;;;;;;;;15.58;56.30;101099.84;2075190;28;19936;-57
2022/12/21 00:33:44;;;;;;;;;;;;;;;15.58;56.00;101097.91;2075608;28;19932;-56
2022/12/21 00:34:46;;;;;;;;;;;;;;;15.57;56.16;101096.31;2076352;28;19929;-59
2022/12/21 00:35:48;;;;;;;;;;;;;;;15.58;56.05;101097.13;2074863;28;19933;-58
2022/12/21 00:36:50;;;;;;;;;;;;;;;15.57;56.00;101099.03;2074891;28;20448;-57
2022/12/21 00:37:53;;;;;;;;;;;;;;;15.58;56.16;101099.84;2076351;28;19973;-56
2022/12/21 00:38:56;;;;;;;;;;;;;;;15.51;56.22;101083.41;2076497;28;19979;-58
2022/12/21 00:39:59;;;;;;;;;;;;;;;15.57;55.96;101092.84;2076007;28;20391;-57
2022/12/21 00:41:02;;;;;;;;;;;;;;;15.57;56.17;101093.59;2075856;28;19933;-55
2022/12/21 00:42:04;;;;;;;;;;;;;;;15.57;56.06;101096.31;2074159;28;19933;-56
2022/12/21 00:43:06;;;;;;;;;;;;;;;15.57;56.08;101099.03;2075867;28;19930;-59
2022/12/21 00:44:09;;;;;;;;;;;;;;;15.57;56.09;101099.03;2075902;28;19940;-57
2022/12/21 00:45:11;;;;;;;;;;;;;;;15.56;56.14;101097.50;2075108;28;19929;-56
2022/12/21 00:46:15;;;;;;;;;;;;;;;15.56;55.95;101094.75;2074211;28;20369;-57
2022/12/21 00:47:17;;;;;;;;;;;;;;;15.57;56.02;101093.59;2076581;28;20404;-55
2022/12/21 00:48:20;;;;;;;;;;;;;;;15.56;56.09;101092.03;2074563;28;20019;-58
2022/12/21 00:49:21;;;;;;;;;;;;;;;15.57;56.12;101088.16;2066609;28;20400;-56
2022/12/21 00:50:28;;;;;;;;;;;;;;;15.57;56.17;101090.88;2075077;28;19933;-58
2022/12/21 00:51:30;;;;;;;;;;;;;;;15.57;56.05;101093.59;2077361;28;19936;-57
2022/12/21 00:52:33;;;;;;;;;;;;;;;15.57;56.00;101088.16;2075979;28;19955;-56
2022/12/21 00:53:36;;;;;;;;;;;;;;;15.56;55.97;101092.03;2077125;28;19929;-57
2022/12/21 00:54:40;;;;;;;;;;;;;;;15.58;56.05;101083.50;2077528;28;19925;-56
2022/12/21 00:55:50;;;;;;;;;;;;;;;15.55;56.15;101087.75;2076480;28;20327;-58
2022/12/21 00:56:53;;;;;;;;;;;;;;;15.57;56.00;101087.41;2074780;28;19925;-55
2022/12/21 00:57:54;;;;;;;;;;;;;;;15.57;56.06;101092.84;2088812;28;19935;-56
2022/12/21 00:58:57;;;;;;;;;;;;;;;15.56;56.16;101083.88;2075980;28;19929;-55
2022/12/21 00:59:59;;;;;;;;;;;;;;;15.56;56.17;101094.75;2075507;28;20439;-56
2022/12/21 01:01:05;;;;;;;;;;;;;;;15.56;56.06;101081.16;2075685;28;19933;-56
2022/12/21 01:02:07;;;;;;;;;;;;;;;15.56;56.00;101086.59;2074972;28;20389;-56
2022/12/21 01:03:09;;;;;;;;;;;;;;;15.57;56.06;101084.69;2075296;28;19933;-57
2022/12/21 01:04:11;;;;;;;;;;;;;;;15.56;56.47;101093.97;2075047;28;19933;-57
2022/12/21 01:05:14;;;;;;;;;;;;;;;15.55;56.01;101090.47;2075203;28;19929;-56
2022/12/21 01:06:16;;;;;;;;;;;;;;;15.57;56.23;101098.28;2074553;28;19925;-55
2022/12/21 01:07:19;;;;;;;;;;;;;;;15.56;56.19;101096.69;2075809;28;20407;-56
2022/12/21 01:08:22;;;;;;;;;;;;;;;15.55;56.01;101090.47;2073639;28;20308;-55
2022/12/21 01:09:24;;;;;;;;;;;;;;;15.55;55.99;101093.22;2075962;28;20288;-55
2022/12/21 01:10:27;;;;;;;;;;;;;;;15.55;56.01;101095.94;2075257;28;20288;-55
2022/12/21 01:11:30;;;;;;;;;;;;;;;15.55;56.17;101093.22;2076374;28;20382;-56
2022/12/21 01:12:31;;;;;;;;;;;;;;;15.56;56.04;101094.75;2073840;28;19933;-58
2022/12/21 01:13:35;;;;;;;;;;;;;;;15.55;56.00;101089.69;2074378;28;19929;-56
2022/12/21 01:14:37;;;;;;;;;;;;;;;15.55;56.10;101090.47;2080957;28;20435;-56
2022/12/21 01:15:40;;;;;;;;;;;;;;;15.55;56.18;101098.66;2082141;28;19933;-57
2022/12/21 01:16:42;;;;;;;;;;;;;;;15.56;56.05;101093.97;2075413;28;20019;-58
2022/12/21 01:17:45;;;;;;;;;;;;;;;15.55;55.96;101087.75;2076743;28;19936;-59
2022/12/21 01:18:47;;;;;;;;;;;;;;;15.54;56.09;101083.44;2075544;28;19937;-57
2022/12/21 01:19:50;;;;;;;;;;;;;;;15.55;56.06;101084.25;2075399;28;20020;-56
2022/12/21 01:20:54;;;;;;;;;;;;;;;15.55;56.11;101093.22;2075872;28;19937;-57
2022/12/21 01:21:56;;;;;;;;;;;;;;;15.54;56.00;101088.91;2076539;28;19955;-56
2022/12/21 01:22:58;;;;;;;;;;;;;;;15.54;56.02;101091.63;2075514;28;19937;-56
2022/12/21 01:24:01;;;;;;;;;;;;;;;15.54;55.99;101105.22;2077087;28;19983;-56
2022/12/21 01:25:02;;;;;;;;;;;;;;;15.55;56.02;101097.84;2075257;28;19929;-55
2022/12/21 01:26:06;;;;;;;;;;;;;;;15.55;56.02;101101.38;2073138;28;19929;-58
2022/12/21 01:27:09;;;;;;;;;;;;;;;15.54;56.00;101099.03;2073359;28;20324;-56
2022/12/21 01:28:11;;;;;;;;;;;;;;;15.55;56.19;101106.03;2075778;28;20092;-58
2022/12/21 01:29:14;;;;;;;;;;;;;;;15.55;56.18;101097.84;2075465;28;20388;-56
2022/12/21 01:30:16;;;;;;;;;;;;;;;15.55;56.10;101100.56;2076489;28;19932;-56
2022/12/21 01:31:20;;;;;;;;;;;;;;;15.54;55.99;101099.03;2076010;28;19929;-57
2022/12/21 01:32:21;;;;;;;;;;;;;;;15.55;56.09;101106.03;2075887;28;20445;-56
2022/12/21 01:33:24;;;;;;;;;;;;;;;15.54;56.00;101099.03;2074213;28;19972;-57
2022/12/21 01:34:25;;;;;;;;;;;;;;;15.54;56.03;101105.22;2065226;28;20921;-57
2022/12/21 01:35:28;;;;;;;;;;;;;;;15.53;56.07;101108.31;2074972;28;19936;-57
2022/12/21 01:36:31;;;;;;;;;;;;;;;15.55;56.02;101097.84;2083240;28;19933;-57
2022/12/21 01:37:32;;;;;;;;;;;;;;;15.53;55.98;101100.94;2081574;28;20240;-55
2022/12/21 01:38:35;;;;;;;;;;;;;;;15.54;56.18;101094.34;2081127;28;19936;-59
2022/12/21 01:39:37;;;;;;;;;;;;;;;15.54;56.00;101096.31;2076880;28;19929;-57
2022/12/21 01:40:40;;;;;;;;;;;;;;;15.53;55.97;101098.22;2074103;28;19965;-58
2022/12/21 01:41:44;;;;;;;;;;;;;;;15.53;56.13;101098.22;2075660;28;20400;-59
2022/12/21 01:42:46;;;;;;;;;;;;;;;15.54;56.10;101097.06;2075061;28;19929;-57
2022/12/21 01:43:50;;;;;;;;;;;;;;;15.54;56.03;101099.78;2073348;28;19933;-56
2022/12/21 01:44:59;;;;;;;;;;;;;;;15.54;56.02;101090.84;2074644;28;19940;-58
2022/12/21 01:46:04;;;;;;;;;;;;;;;15.53;56.09;101095.50;2076071;28;19929;-58
2022/12/21 01:47:07;;;;;;;;;;;;;;;15.54;56.00;101093.56;2075958;28;19929;-56
2022/12/21 01:48:13;;;;;;;;;;;;;;;15.53;55.97;101095.50;2076536;28;19929;-57
2022/12/21 01:49:19;;;;;;;;;;;;;;;15.53;56.14;101095.50;2074812;28;19929;-56
2022/12/21 01:50:25;;;;;;;;;;;;;;;15.53;56.01;101095.50;2074585;28;19933;-56
2022/12/21 01:51:28;;;;;;;;;;;;;;;15.53;55.93;101092.78;2076593;28;19925;-56
2022/12/21 01:52:32;;;;;;;;;;;;;;;15.53;56.10;101092.78;2074671;28;19996;-57
2022/12/21 01:53:37;;;;;;;;;;;;;;;15.53;55.96;101087.34;2075119;28;19937;-56
2022/12/21 01:54:42;;;;;;;;;;;;;;;15.54;56.01;101101.75;2072632;28;20256;-55
2022/12/21 01:55:46;;;;;;;;;;;;;;;15.53;56.10;101098.22;2072981;28;19929;-55
2022/12/21 01:56:51;;;;;;;;;;;;;;;15.52;55.91;101096.66;2075167;28;19929;-56
2022/12/21 01:57:54;;;;;;;;;;;;;;;15.53;56.38;101097.44;2077608;28;20084;-56
2022/12/21 01:58:59;;;;;;;;;;;;;;;15.54;55.93;101099.78;2075228;28;19929;-56
2022/12/21 02:00:01;;;;;;;;;;;;;;;15.52;56.14;101096.66;2076711;28;19933;-57
2022/12/21 02:01:14;;;;;;;;;;;;;;;15.53;56.18;101108.31;2076315;28;20547;-57
2022/12/21 02:02:17;;;;;;;;;;;;;;;15.53;56.13;101094.72;2081139;28;19925;-56
2022/12/21 02:03:23;;;;;;;;;;;;;;;15.52;55.99;101091.22;2080980;28;19983;-57
2022/12/21 02:04:25;;;;;;;;;;;;;;;15.53;56.19;101092.78;2074932;28;19930;-56
2022/12/21 02:05:34;;;;;;;;;;;;;;;15.53;56.08;101098.22;2075518;28;20359;-57
2022/12/21 02:06:38;;;;;;;;;;;;;;;15.52;56.02;101091.22;2074120;28;19976;-57
2022/12/21 02:07:42;;;;;;;;;;;;;;;15.52;56.21;101093.94;2073923;28;20309;-55
2022/12/21 02:08:43;;;;;;;;;;;;;;;15.52;56.02;101106.75;2074929;28;20445;-55
2022/12/21 02:09:47;;;;;;;;;;;;;;;15.52;56.12;101102.09;2074300;28;20404;-56
2022/12/21 02:10:51;;;;;;;;;;;;;;;15.51;56.01;101100.53;2074998;28;19994;-55
2022/12/21 02:11:56;;;;;;;;;;;;;;;15.53;55.99;101108.31;2077211;28;19979;-58
2022/12/21 02:13:01;;;;;;;;;;;;;;;15.52;55.96;101101.31;2077435;28;19933;-55
2022/12/21 02:14:03;;;;;;;;;;;;;;;15.52;56.11;101104.03;2075499;28;19949;-56
2022/12/21 02:15:10;;;;;;;;;;;;;;;15.52;56.08;101102.09;2075993;28;19976;-55
2022/12/21 02:16:18;;;;;;;;;;;;;;;15.52;56.12;101106.75;2076711;28;20459;-58
2022/12/21 02:17:26;;;;;;;;;;;;;;;15.52;55.97;101110.28;2082478;28;19975;-54
2022/12/21 02:18:37;;;;;;;;;;;;;;;15.51;56.02;101111.41;2081519;28;19968;-55
2022/12/21 02:20:04;;;;;;;;;;;;;;;15.51;56.05;101103.25;2077030;28;19929;-57
2022/12/21 02:21:18;;;;;;;;;;;;;;;15.53;56.14;101111.03;2077310;28;20056;-55
2022/12/21 02:22:26;;;;;;;;;;;;;;;15.52;56.31;101104.81;2081541;28;19928;-56
2022/12/21 02:23:48;;;;;;;;;;;;;;;15.52;56.16;101104.03;2081994;28;19929;-56
2022/12/21 02:25:07;;;;;;;;;;;;;;;15.52;55.89;101102.09;2076215;28;19929;-56
2022/12/21 02:26:19;;;;;;;;;;;;;;;15.51;55.92;101105.97;2076794;28;19929;-56
2022/12/21 02:27:46;;;;;;;;;;;;;;;15.52;56.12;101107.56;2077275;28;19929;-57
2022/12/21 02:29:05;;;;;;;;;;;;;;;15.53;56.07;101108.31;2077684;28;19929;-57
2022/12/21 02:30:09;;;;;;;;;;;;;;;15.52;56.11;101112.19;2077088;28;19929;-54
2022/12/21 02:31:18;;;;;;;;;;;;;;;15.51;56.09;101108.69;2076093;28;20379;-56
2022/12/21 02:32:25;;;;;;;;;;;;;;;15.52;56.08;101117.63;2075780;28;20035;-55
2022/12/21 02:33:35;;;;;;;;;;;;;;;15.51;56.03;101116.84;2078219;28;20305;-55
2022/12/21 02:34:44;;;;;;;;;;;;;;;15.52;56.01;101112.19;2076871;28;20392;-55
2022/12/21 02:35:56;;;;;;;;;;;;;;;15.51;56.14;101111.41;2076536;28;19998;-55
2022/12/21 02:37:04;;;;;;;;;;;;;;;15.51;55.94;101114.13;2075511;28;19925;-55
2022/12/21 02:38:13;;;;;;;;;;;;;;;15.51;56.15;101116.84;2061149;28;19976;-55
2022/12/21 02:39:19;;;;;;;;;;;;;;;15.51;56.20;101114.13;2068626;28;19930;-57
2022/12/21 02:40:26;;;;;;;;;;;;;;;15.51;56.04;101119.56;2076295;28;19976;-56
2022/12/21 02:41:36;;;;;;;;;;;;;;;15.51;56.00;101116.84;2075811;28;20407;-55
2022/12/21 02:44:12;;;;;;;;;;;;;;;15.51;56.03;101103.25;2076882;28;19929;-56
2022/12/21 02:45:18;;;;;;;;;;;;;;;15.51;56.16;101105.16;2077046;28;20259;-56
2022/12/21 02:46:26;;;;;;;;;;;;;;;15.51;56.05;101100.53;2076984;28;19976;-55
2022/12/21 02:47:32;;;;;;;;;;;;;;;15.51;56.00;101099.72;2075693;28;19932;-55
2022/12/21 02:48:39;;;;;;;;;;;;;;;15.51;56.03;101097.78;2077604;28;19929;-58
2022/12/21 02:49:45;;;;;;;;;;;;;;;15.51;56.06;101099.72;2071167;28;20157;-55
2022/12/21 02:50:49;;;;;;;;;;;;;;;15.50;56.06;101098.97;2069897;28;19932;-54
2022/12/21 02:51:55;;;;;;;;;;;;;;;15.50;56.17;101098.16;2075363;28;19940;-57
2022/12/21 02:53:00;;;;;;;;;;;;;;;15.50;56.11;101096.25;2081392;28;19925;-55
2022/12/21 02:54:02;;;;;;;;;;;;;;;15.50;56.07;101098.97;2075717;28;20467;-55
2022/12/21 02:55:06;;;;;;;;;;;;;;;15.50;56.14;101096.25;2082361;28;19936;-56
2022/12/21 02:56:13;;;;;;;;;;;;;;;15.50;56.01;101095.44;2082079;28;19937;-54
2022/12/21 02:57:15;;;;;;;;;;;;;;;15.50;56.14;101090.81;2083728;28;20382;-56
2022/12/21 02:58:18;;;;;;;;;;;;;;;15.49;56.06;101097.38;2067219;28;19926;-54
2022/12/21 02:59:24;;;;;;;;;;;;;;;15.50;56.13;101093.53;2066603;28;19969;-56
2022/12/21 03:00:28;;;;;;;;;;;;;;;15.49;55.97;101097.38;2074716;28;19975;-55
2022/12/21 03:01:42;;;;;;;;;;;;;;;15.50;56.03;101090.81;2067944;28;20036;-56
2022/12/21 03:04:32;;;;;;;;;;;;;;;15.49;56.23;101086.50;2075498;28;19933;-56
2022/12/21 03:05:39;;;;;;;;;;;;;;;15.49;56.15;101086.50;2074777;28;19937;-55
2022/12/21 03:06:51;;;;;;;;;;;;;;;15.49;56.12;101085.72;2075748;28;19976;-57
2022/12/21 03:07:59;;;;;;;;;;;;;;;15.50;56.03;101079.13;2085453;28;19944;-55
2022/12/21 03:09:07;;;;;;;;;;;;;;;15.50;56.04;101081.84;2075481;28;19951;-57
2022/12/21 03:10:14;;;;;;;;;;;;;;;15.49;56.02;101091.16;2069799;28;20363;-56
2022/12/21 03:11:17;;;;;;;;;;;;;;;15.49;56.05;101088.44;2074861;28;19936;-54
2022/12/21 03:12:22;;;;;;;;;;;;;;;15.49;56.12;101091.94;2078156;28;19929;-55
2022/12/21 03:13:32;;;;;;;;;;;;;;;15.48;56.05;101093.09;2078600;28;19933;-55
2022/12/21 03:14:44;;;;;;;;;;;;;;;15.48;56.02;101090.38;2081675;28;20008;-55
2022/12/21 03:15:49;;;;;;;;;;;;;;;15.49;56.07;101093.88;2076229;28;20416;-54
2022/12/21 03:16:56;;;;;;;;;;;;;;;15.49;56.05;101104.78;2069426;28;20447;-56
2022/12/21 03:18:01;;;;;;;;;;;;;;;15.49;55.93;101102.81;2075676;28;20402;-55
2022/12/21 03:19:07;;;;;;;;;;;;;;;15.49;56.15;101096.59;2075422;28;19933;-56
2022/12/21 03:20:12;;;;;;;;;;;;;;;15.48;56.06;101095.81;2076260;28;19929;-57
2022/12/21 03:21:17;;;;;;;;;;;;;;;15.48;55.94;101095.81;2076267;28;20433;-56
2022/12/21 03:22:24;;;;;;;;;;;;;;;15.48;56.02;101095.81;2082881;28;19966;-55
2022/12/21 03:23:32;;;;;;;;;;;;;;;15.48;56.13;101101.25;2075856;28;19936;-55
2022/12/21 03:24:36;;;;;;;;;;;;;;;15.49;56.08;101097.38;2077643;28;19937;-57
2022/12/21 03:25:42;;;;;;;;;;;;;;;15.48;56.02;101095.81;2075530;28;19991;-55
2022/12/21 03:26:48;;;;;;;;;;;;;;;15.49;56.13;101099.34;2075865;28;19983;-55
2022/12/21 03:27:53;;;;;;;;;;;;;;;15.49;56.07;101102.81;2081273;28;19937;-56
2022/12/21 03:28:57;;;;;;;;;;;;;;;15.48;56.06;101095.81;2079926;28;19933;-56
2022/12/21 03:30:02;;;;;;;;;;;;;;;15.49;55.94;101096.59;2076454;28;19936;-59
2022/12/21 03:31:07;;;;;;;;;;;;;;;15.49;55.99;101093.88;2076336;28;19933;-55
2022/12/21 03:32:12;;;;;;;;;;;;;;;15.49;56.13;101099.34;2074720;28;20016;-56
2022/12/21 03:33:17;;;;;;;;;;;;;;;15.47;55.96;101094.25;2076220;28;20290;-55
2022/12/21 03:34:22;;;;;;;;;;;;;;;15.49;56.08;101091.94;2077606;28;19936;-56
2022/12/21 03:35:27;;;;;;;;;;;;;;;15.48;56.03;101089.56;2075656;28;19929;-57
2022/12/21 03:36:30;;;;;;;;;;;;;;;15.48;55.93;101084.94;2076569;28;19929;-56
2022/12/21 03:37:35;;;;;;;;;;;;;;;15.48;56.07;101090.38;2075484;28;20340;-57
2022/12/21 03:38:40;;;;;;;;;;;;;;;15.48;55.99;101090.38;2076866;28;19933;-55
2022/12/21 03:39:46;;;;;;;;;;;;;;;15.49;56.06;101091.16;2075892;28;19994;-56
2022/12/21 03:40:51;;;;;;;;;;;;;;;15.48;56.11;101089.56;2075740;28;19952;-60
2022/12/21 03:41:57;;;;;;;;;;;;;;;15.48;56.15;101093.09;2067996;28;19940;-59
2022/12/21 03:43:01;;;;;;;;;;;;;;;15.47;56.03;101099.69;2076683;28;19929;-57
2022/12/21 03:44:06;;;;;;;;;;;;;;;15.48;56.24;101095.81;2082398;28;19933;-58
2022/12/21 03:45:09;;;;;;;;;;;;;;;15.47;56.00;101096.97;2075953;28;19940;-57
2022/12/21 03:46:16;;;;;;;;;;;;;;;15.48;56.18;101092.31;2077147;28;19929;-59
2022/12/21 03:47:23;;;;;;;;;;;;;;;15.47;56.26;101088.81;2075660;28;19929;-55
2022/12/21 03:48:27;;;;;;;;;;;;;;;15.47;56.11;101096.97;2076073;28;19926;-55
2022/12/21 03:49:33;;;;;;;;;;;;;;;15.47;56.20;101088.03;2076346;28;19972;-58
2022/12/21 03:50:37;;;;;;;;;;;;;;;15.48;55.94;101092.31;2076647;28;19937;-56
2022/12/21 03:51:43;;;;;;;;;;;;;;;15.48;56.11;101095.03;2075528;28;19930;-56
2022/12/21 03:52:48;;;;;;;;;;;;;;;15.47;56.13;101102.41;2075695;28;19937;-56
2022/12/21 03:53:55;;;;;;;;;;;;;;;15.47;56.04;101094.25;2076190;28;19929;-56
2022/12/21 03:55:01;;;;;;;;;;;;;;;15.47;56.07;101094.25;2076045;28;19929;-55
2022/12/21 03:56:05;;;;;;;;;;;;;;;15.47;55.99;101088.81;2075839;28;20131;-55
2022/12/21 03:57:09;;;;;;;;;;;;;;;15.47;56.10;101088.81;2077801;28;19929;-55
2022/12/21 03:58:11;;;;;;;;;;;;;;;15.47;56.03;101088.81;2077498;28;19929;-55
2022/12/21 03:59:14;;;;;;;;;;;;;;;15.47;56.13;101088.81;2075472;28;19933;-59
2022/12/21 04:00:16;;;;;;;;;;;;;;;15.47;56.06;101082.56;2076542;28;19929;-55
2022/12/21 04:01:21;;;;;;;;;;;;;;;15.47;56.24;101085.28;2076353;28;20035;-56
2022/12/21 04:02:27;;;;;;;;;;;;;;;15.47;55.99;101083.38;2076884;28;20498;-59
2022/12/21 04:03:32;;;;;;;;;;;;;;;15.46;56.00;101087.22;2075718;28;19936;-55
2022/12/21 04:04:38;;;;;;;;;;;;;;;15.47;56.20;101082.56;2076343;28;20004;-55
2022/12/21 04:05:43;;;;;;;;;;;;;;;15.46;56.21;101076.34;2076203;28;19933;-58
2022/12/21 04:06:49;;;;;;;;;;;;;;;15.47;56.22;101079.84;2075938;28;19936;-56
2022/12/21 04:07:52;;;;;;;;;;;;;;;15.47;56.14;101077.94;2075854;28;20277;-56
2022/12/21 04:08:55;;;;;;;;;;;;;;;15.47;56.00;101077.13;2075707;28;19934;-57
2022/12/21 04:09:58;;;;;;;;;;;;;;;15.48;56.11;101078.69;2076501;28;19929;-55
2022/12/21 04:11:00;;;;;;;;;;;;;;;15.46;56.17;101072.84;2077167;28;20500;-56
2022/12/21 04:13:25;;;;;;;;;;;;;;;15.45;55.91;101074.78;2075992;28;19929;-56
2022/12/21 04:14:27;;;;;;;;;;;;;;;15.46;56.03;101076.34;2075389;28;20483;-54
2022/12/21 04:16:03;;;;;;;;;;;;;;;15.46;56.13;101076.34;2076017;28;19929;-56
2022/12/21 04:16:51;;;;;;;;;;;;;;;15.46;56.06;101086.47;2076441;28;20389;-56
2022/12/21 04:17:55;;;;;;;;;;;;;;;15.46;55.96;101076.34;2075247;28;19934;-55
2022/12/21 04:20:18;;;;;;;;;;;;;;;15.46;56.06;101070.91;2076232;28;19925;-55
2022/12/21 04:21:20;;;;;;;;;;;;;;;15.46;55.94;101070.91;2077951;28;20383;-57
2022/12/21 04:29:26;;;;;;;;;;;;;;;15.46;56.08;101064.69;2076171;28;19933;-59
2022/12/21 04:30:28;;;;;;;;;;;;;;;15.46;55.97;101064.69;2075104;28;19929;-57
2022/12/21 04:31:30;;;;;;;;;;;;;;;15.45;56.20;101061.19;2076540;28;19951;-57
2022/12/21 04:32:32;;;;;;;;;;;;;;;15.45;56.07;101068.53;2075913;28;19976;-57
2022/12/21 04:33:36;;;;;;;;;;;;;;;15.44;56.21;101067.78;2074536;28;19930;-57
2022/12/21 04:34:38;;;;;;;;;;;;;;;15.46;56.27;101075.56;2075708;28;19971;-55
2022/12/21 04:37:30;;;;;;;;;;;;;;;15.45;56.13;101072.06;2081026;28;20200;-57
2022/12/21 04:38:23;;;;;;;;;;;;;;;15.45;56.09;101076.72;2075673;28;19936;-56
2022/12/21 04:39:26;;;;;;;;;;;;;;;15.45;56.06;101072.06;2075423;28;20108;-58
2022/12/21 04:40:29;;;;;;;;;;;;;;;15.45;55.99;101074.78;2072770;28;20004;-55
2022/12/21 04:41:31;;;;;;;;;;;;;;;15.45;56.02;101069.34;2072702;28;20505;-56
2022/12/21 04:42:33;;;;;;;;;;;;;;;15.44;56.19;101075.94;2076007;28;20552;-57
2022/12/21 04:43:35;;;;;;;;;;;;;;;15.45;56.01;101074.00;2074995;28;22462;-56
2022/12/21 04:44:37;;;;;;;;;;;;;;;15.45;56.11;101077.50;2074202;28;20368;-56
2022/12/21 04:45:39;;;;;;;;;;;;;;;15.44;56.07;101069.72;2075830;28;20381;-56
2022/12/21 04:46:42;;;;;;;;;;;;;;;15.45;56.03;101066.63;2075750;28;19968;-56
2022/12/21 04:47:43;;;;;;;;;;;;;;;15.45;56.01;101074.78;2076704;28;19990;-59
2022/12/21 04:48:47;;;;;;;;;;;;;;;15.45;55.95;101069.34;2075239;28;20307;-56
2022/12/21 04:49:50;;;;;;;;;;;;;;;15.45;55.91;101072.06;2076410;28;19929;-56
2022/12/21 04:50:52;;;;;;;;;;;;;;;15.45;56.07;101069.34;2076023;28;19929;-58
2022/12/21 04:51:54;;;;;;;;;;;;;;;15.44;55.99;101073.22;2074828;28;19933;-56
2022/12/21 04:52:56;;;;;;;;;;;;;;;15.45;56.10;101074.78;2075188;28;19941;-55
2022/12/21 04:53:58;;;;;;;;;;;;;;;15.44;56.02;101070.50;2074481;28;19929;-54
2022/12/21 04:55:00;;;;;;;;;;;;;;;15.45;55.92;101074.00;2075530;28;19929;-57
2022/12/21 04:56:03;;;;;;;;;;;;;;;15.44;56.04;101075.16;2076112;28;19928;-55
2022/12/21 04:57:04;;;;;;;;;;;;;;;15.44;56.19;101072.44;2075074;28;19933;-56
2022/12/21 04:58:07;;;;;;;;;;;;;;;15.45;56.03;101069.34;2076109;28;19940;-58
2022/12/21 04:59:08;;;;;;;;;;;;;;;15.44;56.18;101067.78;2075677;28;19951;-57
2022/12/21 05:00:11;;;;;;;;;;;;;;;15.44;56.23;101061.53;2075305;28;19952;-57
2022/12/21 05:01:14;;;;;;;;;;;;;;;15.44;56.13;101067.00;2083723;28;19933;-59
2022/12/21 05:02:17;;;;;;;;;;;;;;;15.44;56.10;101064.28;2082261;28;20398;-57
2022/12/21 05:03:19;;;;;;;;;;;;;;;15.44;56.15;101065.06;2075878;28;20422;-55
2022/12/21 05:04:23;;;;;;;;;;;;;;;15.44;56.20;101065.06;2073913;28;20004;-56
2022/12/21 05:05:24;;;;;;;;;;;;;;;15.45;56.01;101061.19;2072664;28;20084;-57
2022/12/21 05:06:27;;;;;;;;;;;;;;;15.44;55.96;101056.09;2063984;28;19934;-57
2022/12/21 05:07:29;;;;;;;;;;;;;;;15.44;56.09;101062.34;2058299;28;19929;-57
2022/12/21 05:08:31;;;;;;;;;;;;;;;15.44;56.11;101061.53;2075129;28;19936;-57
2022/12/21 05:09:33;;;;;;;;;;;;;;;15.44;56.03;101067.78;2075951;28;19940;-58
2022/12/21 05:10:36;;;;;;;;;;;;;;;15.44;56.11;101062.34;2075136;28;20462;-58
2022/12/21 05:11:37;;;;;;;;;;;;;;;15.44;56.00;101062.34;2074854;28;19965;-57
2022/12/21 05:12:40;;;;;;;;;;;;;;;15.44;56.00;101050.66;2075851;28;19936;-57
2022/12/21 05:13:42;;;;;;;;;;;;;;;15.44;55.96;101056.09;2074079;28;20341;-57
2022/12/21 05:14:45;;;;;;;;;;;;;;;15.43;56.14;101052.59;2075550;28;19929;-58
2022/12/21 05:15:46;;;;;;;;;;;;;;;15.43;56.17;101049.88;2075090;28;19940;-54
2022/12/21 05:16:49;;;;;;;;;;;;;;;15.45;56.10;101061.19;2076149;28;20289;-58
2022/12/21 05:17:51;;;;;;;;;;;;;;;15.44;56.10;101059.63;2075382;28;20024;-57
2022/12/21 05:18:53;;;;;;;;;;;;;;;15.44;56.07;101056.91;2074377;28;19940;-57
2022/12/21 05:19:57;;;;;;;;;;;;;;;15.43;55.99;101052.59;2074124;28;19930;-56
2022/12/21 05:20:59;;;;;;;;;;;;;;;15.43;56.02;101052.59;2074785;28;19933;-57
2022/12/21 05:22:01;;;;;;;;;;;;;;;15.43;56.04;101052.59;2076387;28;20313;-56
2022/12/21 05:23:03;;;;;;;;;;;;;;;15.43;56.01;101049.88;2076861;28;19933;-57
2022/12/21 05:24:06;;;;;;;;;;;;;;;15.44;56.00;101056.91;2075982;28;19932;-56
2022/12/21 05:25:08;;;;;;;;;;;;;;;15.44;55.98;101047.94;2072766;28;20217;-56
2022/12/21 05:26:11;;;;;;;;;;;;;;;15.43;56.18;101054.53;2072341;28;19930;-55
2022/12/21 05:27:16;;;;;;;;;;;;;;;15.44;55.97;101053.38;2075730;28;19933;-59
2022/12/21 05:28:19;;;;;;;;;;;;;;;15.43;56.11;101055.31;2076729;28;19929;-55
2022/12/21 05:29:21;;;;;;;;;;;;;;;15.42;56.01;101053.75;2075291;28;19980;-55
2022/12/21 05:30:23;;;;;;;;;;;;;;;15.43;56.11;101055.31;2075217;28;19929;-55
2022/12/21 05:31:25;;;;;;;;;;;;;;;15.43;56.12;101055.31;2075656;28;19929;-57
2022/12/21 05:32:28;;;;;;;;;;;;;;;15.43;56.04;101054.53;2076240;28;19929;-56
2022/12/21 05:33:29;;;;;;;;;;;;;;;15.43;56.04;101058.03;2074518;28;19934;-57
2022/12/21 05:34:32;;;;;;;;;;;;;;;15.43;56.02;101054.53;2076062;28;19929;-56
2022/12/21 05:35:38;;;;;;;;;;;;;;;15.43;56.06;101060.75;2073625;28;20025;-56
2022/12/21 05:36:41;;;;;;;;;;;;;;;15.43;56.28;101054.53;2076061;28;20036;-58
2022/12/21 05:37:43;;;;;;;;;;;;;;;15.43;56.03;101057.25;2076288;28;19947;-55
2022/12/21 05:38:46;;;;;;;;;;;;;;;15.43;56.11;101051.81;2075158;28;19929;-55
2022/12/21 05:39:47;;;;;;;;;;;;;;;15.43;56.12;101057.25;2075560;28;20411;-54
2022/12/21 05:40:50;;;;;;;;;;;;;;;15.43;56.37;101060.75;2076631;28;19925;-55
2022/12/21 05:41:52;;;;;;;;;;;;;;;15.42;56.09;101048.31;2075367;28;19936;-54
2022/12/21 05:42:54;;;;;;;;;;;;;;;15.42;56.06;101059.19;2081035;28;19933;-55
2022/12/21 05:43:56;;;;;;;;;;;;;;;15.43;56.09;101055.31;2083667;28;19933;-55